NY Terminal Aviation Weather Discussion (AFD) - Prepared: 441 AM EDT FRI JUL 25 2014
HIGH PRESSURE SLOWLY BUILDS IN FROM THE WEST. A WEAK SURFACE
TROUGH DEVELOPS WEST OF NYC IN THE EARLY AFTERNOON.

VFR. MODERATE TO HIGH CONFIDENCE IN WIND FORECASTS.

A LIGHT NLY FLOW CONTINUES THROUGH THE EARLY MORNING HOURS. SEA
BREEZES ARE EXPECTED TO IMPACT ALL COASTAL TERMINALS THIS
AFTN...HOWEVER THE DEVELOPING SFC TROUGH SHOULD BACK WINDS TO WLY
FOR AN HOUR OR TWO AT KEWR/KTEB/KHPN BEFORE THE SEABREEZE MOVES
THROUGH.

5 Day General Aviation Outlook:

.OUTLOOK FOR 06Z SATURDAY THROUGH TUESDAY...
.FRI NIGHT-SAT...VFR.
.SAT NIGHT-MON...VFR WITH A CHANCE OF SHRA/TSTMS WITH MVFR OR
LOWER POSSIBLE.
.TUE...VFR.


NY Metro Terminal Aviation Weather Summary: (Explanation of Color Coding)
NOTE: All Wind Directions are TRUE (add 13 degrees for magnetic directions). Tail and Crosswind Calculations do account for the magnetic deviation of runways.

Click on the Airport Below for Specific Information at that Terminal

TAF Overview JFK TAF LGA TAF EWR TAF TEB TAF HPN TAF ISP TAF

Jump to AirSpace Impacts Section Condensed "lite" version of SPA page
**************************************************************************************
KJFK Terminal Weather: (Wind Directions Are True, Except Where Noted, ADD 13 degrees for Magnetic)

5MIN KJFK 251110Z 01008KT 10SM CLR 21/12 A2999 -50 58 
     600 030/08 RMK AO2 $
5MIN KJFK 251105Z 02006KT 10SM CLR 21/12 A2999 -40 58 
     600 030/06 RMK AO2 $
********************************************
****        MAGNETIC DIRECTIONS         ****
********************************************
KJFK 07/25/2014 11:16:59 GMT 020 08 KT
KJFK 07/25/2014 11:14:59 GMT 020 08 KT
KJFK 07/25/2014 11:13:20 GMT 030 07 KT
KJFK 07/25/2014 11:10:59 GMT 020 05 KT
KJFK 07/25/2014 11:08:59 GMT 020 06 KT
KJFK 07/25/2014 11:07:20 GMT 020 08 KT
KJFK 07/25/2014 11:04:59 GMT 020 07 KT
KJFK 07/25/2014 11:02:59 GMT 010 07 KT
KJFK 07/25/2014 11:01:33 GMT 020 08 KT
KJFK 07/25/2014 10:59:33 GMT 010 07 KT
SAUS70 KJFK 251100 RRA
METAR KJFK 251051Z 36007KT 10SM FEW050 SCT070 SCT250 20/12 A2998 RMK AO2
     SLP152 T02000122 $
FTNA35 KJFK 250834 RRB
KJFK 250830Z 2509/2612 01009KT P6SM SCT070 SCT250
     FM251700 19011KT P6SM FEW050
     FM260300 21008KT P6SM FEW250
KJFK FCSTER COMMENTS: SEABREEZE EXPECTED TO IMPACT AIRFIELD
BETWEEN 16Z AND 18Z.

jfk

JFK Hourly Forecast Temperature (C)

JFK Hourly TMPS
**************************************************************************************
KLGA Terminal Weather: (Wind Directions Are True, Except Where Noted, ADD 13 degrees for Magnetic)

5MIN KLGA 251110Z 01007KT 10SM CLR 20/12 A2999 -30 60 
     600 020/07 RMK AO2
5MIN KLGA 251105Z 01008KT 10SM CLR 20/12 A2998 -30 60 
     600 020/08 RMK AO2
********************************************
****        MAGNETIC DIRECTIONS         ****
********************************************
KLGA 07/25/2014 11:17:57 GMT 020 10 KT
KLGA 07/25/2014 11:15:57 GMT 020 10 KT
KLGA 07/25/2014 11:13:57 GMT 020 10 KT
KLGA 07/25/2014 11:11:58 GMT 020 11 KT
KLGA 07/25/2014 11:09:58 GMT 010 08 KT
KLGA 07/25/2014 11:07:58 GMT 020 09 KT
KLGA 07/25/2014 11:05:57 GMT 030 10 KT
KLGA 07/25/2014 11:03:57 GMT 030 10 KT
KLGA 07/25/2014 11:01:57 GMT 030 10 KT
KLGA 07/25/2014 10:59:58 GMT 030 12 KT
SAUS70 KLGA 251100 RRP
METAR KLGA 251051Z 01007KT 10SM FEW070 SCT250 19/12 A2998 RMK AO2 SLP151
     T01940122
FTUS31 KLGA 250833 AAA
KLGA 250830Z 2509/2606 01007KT P6SM SCT080 SCT250
     FM252000 18010KT P6SM FEW050
     FM260200 21007KT P6SM FEW250
KLGA FCSTER COMMENTS: SEABREEZE EXPECTED TO IMPACT AIRFIELD
BETWEEN 19Z AND 21Z.

lga


**************************************************************************************

KEWR Terminal Weather: (Wind Directions Are True, Except Where Noted, ADD 13 degrees for Magnetic)

5MIN KEWR 251110Z 01006KT 10SM FEW065 20/13 A3000 -50 
     63 600 030/06 RMK AO2
5MIN KEWR 251105Z 02008KT 10SM FEW065 19/12 A2999 -40 
     62 500 030/08 RMK AO2
********************************************
****        MAGNETIC DIRECTIONS         ****
********************************************
KEWR 07/25/2014 11:17:22 GMT 030 09 KT
KEWR 07/25/2014 11:15:22 GMT 030 11 KT
KEWR 07/25/2014 11:13:22 GMT 030 11 KT
KEWR 07/25/2014 11:11:22 GMT 030 10 KT
KEWR 07/25/2014 11:09:22 GMT 030 09 KT
KEWR 07/25/2014 11:07:22 GMT 030 09 KT
KEWR 07/25/2014 11:05:22 GMT 030 11 KT
KEWR 07/25/2014 11:03:22 GMT 030 09 KT
KEWR 07/25/2014 11:00:57 GMT 030 09 KT
KEWR 07/25/2014 10:59:57 GMT 030 08 KT
SAUS70 KEWR 251100
METAR KEWR 251051Z 02007KT 10SM SCT065 BKN250 19/12 A2998 RMK AO2 SLP153
     T01940122
FTUS31 KEWR 250833 AAA
KEWR 250830Z 2509/2612 35008KT P6SM SCT070 SCT250
     FM251800 30007KT P6SM FEW050
     FM252000 15009KT P6SM FEW050
     FM260200 22006KT P6SM FEW250
KEWR FCSTER COMMENTS: SEABREEZE EXPECTED TO IMPACT AIRFIELD
BETWEEN 19Z AND 21Z.

ewr
Afternoon EWR Haze Potential Forecast: green
THE AFTERNOON KEWR HAZE POTENTIAL FORECAST IS GREEN...WHICH
IMPLIES  SLANT RANGE VISIBILITY 7SM OR GREATER OUTSIDE OF CLOUD.


******************************************************************************

KTEB Terminal Weather:
SAUS80 KTEB 251100
METAR KTEB 251051Z 03003KT 10SM FEW065 20/12 A2998 RMK AO2 SLP153
     T02000117
FTUS31 KTEB 250833 AAA
KTEB 250830Z 2509/2606 35004KT P6SM SCT070 SCT250
     FM251900 29007KT P6SM FEW050
     FM252100 18009KT P6SM FEW050
     FM260100 21005KT P6SM FEW250
KTEB FCSTER COMMENTS: SEABREEZE EXPECTED TO IMPACT AIRFIELD
BETWEEN 20Z AND 22Z.

teb

 


**************************************************************************************

KHPN Terminal Weather:
SAUS70 KHPN 251100 RRF
METAR KHPN 251056Z 35008KT 10SM FEW060 17/12 A2998 RMK AO2 SLP149
     T01720117
FTUS80 KHPN 250533 RRA
KHPN 250529Z 2506/2606 34007KT P6SM SCT070 BKN250
     FM251700 30006KT P6SM FEW050
     FM251900 18008KT P6SM FEW050
     FM260000 VRB03KT P6SM FEW250 AMD NOT SKED
KHPN FCSTER COMMENTS: SEABREEZE EXPECTED TO IMPACT AIRFIELD
BETWEEN 18Z AND 20Z.

HPN


******************************************************************************

KISP Terminal Weather:
SAUS70 KISP 251100 RRF
METAR KISP 251056Z 36007KT 10SM FEW070 SCT230 20/14 A2996 RMK AO2 SLP143
     T02000139
FTUS51 KISP 250833 AAA
KISP 250830Z 2509/2606 35008KT P6SM SCT070 SCT250
     FM251800 22010KT P6SM FEW050
     FM260000 22007KT P6SM FEW250
KISP FCSTER COMMENTS: SEABREEZE EXPECTED TO IMPACT AIRFIELD
BETWEEN 17Z AND 19Z.

ISP

 


ZNY SWAP Season Information

(ZNY SWAP STATEMENT) (Click for PDF File) (ZNY BRIEFING) (Click for PDF File)

*******************************************************
***        NY AIR ROUTE TRAFFIC CONTROL CENTER      ***
***                DAILY SWAP STATEMENT             ***
*******************************************************
NY AIR ROUTE TRAFFIC CONTROL CENTER
DAILY SWAP STATEMENT
WEDNESDAY, JULY 23, 2014
SWAP IS EXPECTED AFTER 17Z.
BROKEN TS LINE WILL DVLP EARLY THIS AFTN FROM WRN ZBW 
THRU WRN ZNY/ERN ZOB AND SW INTO ZDC/ZID. TS LINE WILL MOVE E THRU 
ZNY REACHING N90/PHL ARPTS AFT 22Z. AHEAD OF TS LINE...SCT TS WL 
FORM WITHIN ZNY AIRSPACE AND MAY OCNL ENTER N90.  MOST SGFNT IMPACTS 
J95/Q436 THRU Q42/Q480 INITIALLY BEFORE TS MOVE E ACROSS REMAINING 
ROUTES.

ADDT'L INFO:
AZEZU-PAEPR-HANRI(L453-M201):  NMRS TS WL CONT FM PAEPR S THRU EARLY 
AFTN. TS WL BEC MORE ISOLD-SCT LATE IN DAY. 
DITCH:  IMPACTS EXPECTED AFT 22Z.
EAST GATES: IMPACTS EXPECTED AFT 22Z.
TOMORROW MORNINGS SWAP OUTLOOK:  SWAP IS POSSIBLE.

$$
GS


N90 AirSpace Impacts

N90 ZNY Gate TSTM Forecast    SWAP Day One Forecast

SWAP Day One Forecast    SWAP Day Two Outlook

National Collaborative Convective Forecast Product (CCFP) Forecasts (Mar-Oct)


Vertical Wind Profile
Untitled Document